createdAt,value
2023-05-17T00:00:47.614Z,9.30
2023-05-17T00:04:50.473Z,14.33
2023-05-17T00:08:53.341Z,6.83
2023-05-17T00:12:56.098Z,12.53
2023-05-17T00:17:00.208Z,8.80
2023-05-17T00:21:03.041Z,9.03
2023-05-17T00:25:06.632Z,12.97
2023-05-17T00:29:09.458Z,9.40
2023-05-17T00:33:13.593Z,10.33
2023-05-17T00:37:17.319Z,10.80
2023-05-17T00:41:20.115Z,9.47
2023-05-17T00:45:23.092Z,11.10
2023-05-17T00:49:27.602Z,10.50
2023-05-17T00:53:30.924Z,8.73
2023-05-17T00:57:34.123Z,8.47
2023-05-17T01:01:38.990Z,13.17
2023-05-17T01:05:43.415Z,9.03
2023-05-17T01:09:46.561Z,11.40
2023-05-17T01:13:54.651Z,9.47
2023-05-17T01:18:06.158Z,8.50
2023-05-17T01:22:18.652Z,9.33
2023-05-17T01:26:34.780Z,8.30
2023-05-17T01:30:39.046Z,11.67
2023-05-17T01:34:42.711Z,10.80
2023-05-17T01:38:45.581Z,8.37
2023-05-17T01:42:55.560Z,9.43
2023-05-17T01:47:03.446Z,11.97
2023-05-17T01:51:09.993Z,11.13
2023-05-17T01:55:22.746Z,9.10
2023-05-17T01:59:28.526Z,9.23
2023-05-17T02:03:31.623Z,12.70
2023-05-17T02:07:34.408Z,11.87
2023-05-17T02:11:37.861Z,17.50
2023-05-17T02:15:42.112Z,15.27
2023-05-17T02:19:45.214Z,10.87
2023-05-17T02:23:48.062Z,13.13
2023-05-17T02:27:50.798Z,11.60
2023-05-17T02:31:54.959Z,11.80
2023-05-17T02:35:57.732Z,12.77
2023-05-17T02:40:00.875Z,11.30
2023-05-17T02:44:03.757Z,13.67
2023-05-17T02:48:08.619Z,10.70
2023-05-17T02:52:11.500Z,9.40
2023-05-17T02:56:15.214Z,8.90
2023-05-17T03:00:18.994Z,11.20
2023-05-17T03:04:23.238Z,10.27
2023-05-17T03:08:26.540Z,11.30
2023-05-17T03:12:30.301Z,8.90
2023-05-17T03:16:33.872Z,9.73
2023-05-17T03:20:38.849Z,13.47
2023-05-17T03:24:42.535Z,10.77
2023-05-17T03:28:46.310Z,8.87
2023-05-17T03:32:49.352Z,11.53
2023-05-17T03:36:53.472Z,10.47
2023-05-17T03:40:56.499Z,11.43
2023-05-17T03:45:00.047Z,7.43
2023-05-17T03:49:03.674Z,9.87
2023-05-17T03:53:10.774Z,7.50
2023-05-17T03:57:14.728Z,8.97
2023-05-17T04:01:20.233Z,10.00
2023-05-17T04:05:24.338Z,12.03
2023-05-17T04:09:28.905Z,13.23
2023-05-17T04:13:31.702Z,15.17
2023-05-17T04:17:34.577Z,8.67
2023-05-17T04:21:37.442Z,13.70
2023-05-17T04:25:42.274Z,13.30
2023-05-17T04:29:45.021Z,14.43
2023-05-17T04:33:48.075Z,13.03
2023-05-17T04:37:51.687Z,11.67
2023-05-17T04:41:58.791Z,9.00
2023-05-17T04:46:02.726Z,12.93
2023-05-17T04:50:06.394Z,15.57
2023-05-17T04:54:17.085Z,10.87
2023-05-17T04:58:21.504Z,16.93
2023-05-17T05:02:29.351Z,9.23
2023-05-17T05:06:32.302Z,12.23
2023-05-17T05:10:35.190Z,12.50
2023-05-17T05:14:39.804Z,12.13
2023-05-17T05:18:43.418Z,12.13
2023-05-17T05:22:46.370Z,11.90
2023-05-17T05:26:50.080Z,13.17
2023-05-17T05:31:00.436Z,13.90
2023-05-17T05:35:11.375Z,13.13
2023-05-17T05:39:14.497Z,10.00
2023-05-17T05:43:17.507Z,12.57
2023-05-17T05:47:21.718Z,12.00
2023-05-17T05:51:31.697Z,10.83
2023-05-17T05:55:34.730Z,15.87
2023-05-17T05:59:37.568Z,8.43
2023-05-17T06:03:41.824Z,13.90
2023-05-17T06:07:44.554Z,13.50
2023-05-17T06:11:47.351Z,12.17
2023-05-17T06:15:50.102Z,4.83
2023-05-17T06:19:55.063Z,11.43
2023-05-17T06:23:58.671Z,10.87
2023-05-17T06:28:03.607Z,6.70
2023-05-17T06:32:07.348Z,8.13
2023-05-17T06:36:12.769Z,7.97
2023-05-17T06:40:17.111Z,6.33
2023-05-17T06:44:20.213Z,7.90
2023-05-17T06:48:23.158Z,8.23
2023-05-17T06:52:27.502Z,6.43
2023-05-17T06:56:30.375Z,9.43
2023-05-17T07:00:33.382Z,5.83
2023-05-17T07:04:36.636Z,4.23
2023-05-17T07:08:41.223Z,5.33
2023-05-17T07:12:44.096Z,5.00
2023-05-17T07:16:48.102Z,9.03
2023-05-17T07:20:50.898Z,6.67
2023-05-17T07:24:57.823Z,5.17
2023-05-17T07:29:00.859Z,8.37
2023-05-17T07:33:03.729Z,8.53
2023-05-17T07:37:06.538Z,8.27
2023-05-17T07:41:11.077Z,6.20
2023-05-17T07:45:13.847Z,5.73
2023-05-17T07:49:16.780Z,10.17
2023-05-17T07:53:19.669Z,5.43
2023-05-17T07:57:23.752Z,4.20
2023-05-17T08:01:26.842Z,6.60
2023-05-17T08:05:29.868Z,6.03
2023-05-17T08:09:32.860Z,5.50
2023-05-17T08:13:36.967Z,6.77
2023-05-17T08:17:40.251Z,4.77
2023-05-17T08:21:43.806Z,4.37
2023-05-17T08:25:46.643Z,5.07
2023-05-17T08:29:51.837Z,3.03
2023-05-17T08:33:54.679Z,4.83
2023-05-17T08:37:57.659Z,4.73
2023-05-17T08:42:02.531Z,6.50
2023-05-17T08:46:07.010Z,5.13
2023-05-17T08:50:11.169Z,3.23
2023-05-17T08:54:14.301Z,5.10
2023-05-17T08:58:23.214Z,2.50
2023-05-17T09:02:27.927Z,4.60
2023-05-17T09:06:34.174Z,3.60
2023-05-17T09:10:37.024Z,5.93
2023-05-17T09:14:39.852Z,6.10
2023-05-17T09:18:44.153Z,4.63
2023-05-17T09:22:50.000Z,6.13
2023-05-17T09:26:52.727Z,5.03
2023-05-17T09:30:55.504Z,5.30
2023-05-17T09:35:02.764Z,4.80
2023-05-17T09:39:07.589Z,2.87
2023-05-17T09:43:11.012Z,5.47
2023-05-17T09:47:23.597Z,5.97
2023-05-17T09:51:34.648Z,2.70
2023-05-17T09:55:39.260Z,5.13
2023-05-17T09:59:42.727Z,6.40
2023-05-17T10:03:45.884Z,4.33
2023-05-17T10:07:51.648Z,7.40
2023-05-17T10:11:59.942Z,3.47
2023-05-17T10:16:03.620Z,7.20
2023-05-17T10:20:08.747Z,4.77
2023-05-17T10:24:13.602Z,5.67
2023-05-17T10:28:18.916Z,4.63
2023-05-17T10:32:26.751Z,6.43
2023-05-17T10:36:30.105Z,5.33
2023-05-17T10:40:36.852Z,5.60
2023-05-17T10:44:40.534Z,5.30
2023-05-17T10:48:45.619Z,7.23
2023-05-17T10:52:49.802Z,6.63
2023-05-17T10:56:55.797Z,6.63
2023-05-17T11:00:58.637Z,6.47
2023-05-17T11:05:02.498Z,6.40
2023-05-17T11:09:09.675Z,5.83
2023-05-17T11:13:27.282Z,6.97
2023-05-17T11:17:36.690Z,6.10
2023-05-17T11:21:47.369Z,8.27
2023-05-17T11:25:52.159Z,4.30
2023-05-17T11:30:00.273Z,6.10
2023-05-17T11:34:04.240Z,7.00
2023-05-17T11:38:18.552Z,6.30
2023-05-17T11:42:25.532Z,6.17
2023-05-17T11:46:30.606Z,6.40
2023-05-17T11:50:36.926Z,4.73
2023-05-17T11:54:42.937Z,6.60
2023-05-17T11:58:47.257Z,8.17
2023-05-17T12:02:51.374Z,6.43
2023-05-17T12:06:55.670Z,6.60
2023-05-17T12:10:59.257Z,4.43
2023-05-17T12:15:02.024Z,6.57
2023-05-17T12:19:18.422Z,6.23
2023-05-17T12:23:27.385Z,7.27
2023-05-17T12:27:31.388Z,5.73
2023-05-17T12:31:37.736Z,9.63
2023-05-17T12:35:42.051Z,6.77
2023-05-17T12:39:45.251Z,7.47
2023-05-17T12:43:47.990Z,9.43
2023-05-17T12:47:51.283Z,8.53
2023-05-17T12:51:55.576Z,8.70
2023-05-17T12:55:59.161Z,5.13
2023-05-17T13:00:08.176Z,6.60
2023-05-17T13:04:11.392Z,6.40
2023-05-17T13:08:21.923Z,6.30
2023-05-17T13:12:25.558Z,5.00
2023-05-17T13:16:31.344Z,7.70
2023-05-17T13:20:34.077Z,4.17
2023-05-17T13:24:40.640Z,7.53
2023-05-17T13:28:43.473Z,5.07
2023-05-17T13:32:47.534Z,5.17
2023-05-17T13:36:50.699Z,5.90
2023-05-17T13:40:55.124Z,4.97
2023-05-17T13:44:58.058Z,6.20
2023-05-17T13:49:02.758Z,6.63
2023-05-17T13:53:05.630Z,6.30
2023-05-17T13:57:12.722Z,6.37
2023-05-17T14:01:15.687Z,6.33
2023-05-17T14:05:18.479Z,4.20
2023-05-17T14:09:21.591Z,5.33
2023-05-17T14:13:27.377Z,7.17
2023-05-17T14:17:30.863Z,6.83
2023-05-17T14:21:33.764Z,5.33
2023-05-17T14:25:36.776Z,5.87
2023-05-17T14:29:41.739Z,6.10
2023-05-17T14:33:45.670Z,7.10
2023-05-17T14:37:49.159Z,5.43
2023-05-17T14:41:52.170Z,5.73
2023-05-17T14:45:56.499Z,4.37
2023-05-17T14:49:59.845Z,4.97
2023-05-17T14:54:08.566Z,4.57
2023-05-17T14:58:13.494Z,4.17
2023-05-17T15:02:19.800Z,4.67
2023-05-17T15:06:25.497Z,3.93
2023-05-17T15:10:28.778Z,5.07
2023-05-17T15:14:33.900Z,7.53
2023-05-17T15:18:38.285Z,5.83
2023-05-17T15:22:41.386Z,5.50
2023-05-17T15:26:44.481Z,6.83
2023-05-17T15:30:47.774Z,3.13
2023-05-17T15:34:52.610Z,6.50
2023-05-17T15:38:55.641Z,5.27
2023-05-17T15:42:59.472Z,4.00
2023-05-17T15:47:03.447Z,6.10
2023-05-17T15:51:09.041Z,4.93
2023-05-17T15:55:13.207Z,3.40
2023-05-17T15:59:28.711Z,6.37
2023-05-17T16:03:42.417Z,5.23
2023-05-17T16:07:51.988Z,4.90
2023-05-17T16:11:54.896Z,5.73
2023-05-17T16:16:07.317Z,6.23
2023-05-17T16:20:11.470Z,4.50
2023-05-17T16:24:15.687Z,5.40
2023-05-17T16:28:21.621Z,7.70
2023-05-17T16:32:30.420Z,6.13
2023-05-17T16:36:40.844Z,3.57
2023-05-17T16:40:44.948Z,4.93
2023-05-17T16:44:48.055Z,5.77
2023-05-17T16:48:52.634Z,7.27
2023-05-17T16:52:55.568Z,6.07
2023-05-17T16:56:59.948Z,5.63
2023-05-17T17:01:03.202Z,7.40
2023-05-17T17:05:07.087Z,4.70
2023-05-17T17:09:11.664Z,8.03
2023-05-17T17:13:15.885Z,5.33
2023-05-17T17:17:19.209Z,6.00
2023-05-17T17:21:23.052Z,8.10
2023-05-17T17:25:26.663Z,5.77
2023-05-17T17:29:32.498Z,5.53
2023-05-17T17:33:36.558Z,9.97
2023-05-17T17:37:39.603Z,6.83
2023-05-17T17:41:42.404Z,4.70
2023-05-17T17:45:47.282Z,7.33
2023-05-17T17:49:50.450Z,8.17
2023-05-17T17:53:53.845Z,7.20
2023-05-17T17:57:58.014Z,5.63
2023-05-17T18:02:04.905Z,3.93
2023-05-17T18:06:09.160Z,7.57
2023-05-17T18:10:25.168Z,7.27
2023-05-17T18:14:44.380Z,5.23
2023-05-17T18:18:55.991Z,5.97
2023-05-17T18:22:59.530Z,5.33
2023-05-17T18:27:04.470Z,6.60
2023-05-17T18:31:07.798Z,4.37
2023-05-17T18:35:12.430Z,4.77
2023-05-17T18:39:16.761Z,7.70
2023-05-17T18:43:19.801Z,5.23
2023-05-17T18:47:23.433Z,4.27
2023-05-17T18:51:28.899Z,4.10
2023-05-17T18:55:33.110Z,5.90
2023-05-17T18:59:36.957Z,7.10
2023-05-17T19:03:41.140Z,6.63
2023-05-17T19:07:56.329Z,5.03
2023-05-17T19:12:06.934Z,7.10
2023-05-17T19:16:11.986Z,5.63
2023-05-17T19:20:15.849Z,6.67
2023-05-17T19:24:21.485Z,4.73
2023-05-17T19:28:25.065Z,6.27
2023-05-17T19:32:32.843Z,4.00
2023-05-17T19:36:36.010Z,5.10
2023-05-17T19:40:41.284Z,5.57
2023-05-17T19:44:44.384Z,5.23
2023-05-17T19:48:47.805Z,3.53
2023-05-17T19:52:56.428Z,6.77
2023-05-17T19:57:02.150Z,4.40
2023-05-17T20:01:05.249Z,7.43
2023-05-17T20:05:08.868Z,4.90
2023-05-17T20:09:40.143Z,5.73
2023-05-17T20:13:44.469Z,4.70
2023-05-17T20:17:50.280Z,5.27
2023-05-17T20:21:55.817Z,5.90
2023-05-17T20:25:59.000Z,4.27
2023-05-17T20:30:05.475Z,5.93
2023-05-17T20:34:08.906Z,5.43
2023-05-17T20:38:12.144Z,6.27
2023-05-17T20:42:18.023Z,4.20
2023-05-17T20:46:23.742Z,4.73
2023-05-17T20:50:28.843Z,4.57
2023-05-17T20:54:32.424Z,6.47
2023-05-17T20:58:35.802Z,5.40
2023-05-17T21:02:40.713Z,8.23
2023-05-17T21:06:44.344Z,5.20
2023-05-17T21:11:00.830Z,3.97
2023-05-17T21:15:15.252Z,5.93
2023-05-17T21:19:21.337Z,4.43
2023-05-17T21:23:24.764Z,3.47
2023-05-17T21:27:28.838Z,4.23
2023-05-17T21:31:32.593Z,3.63
2023-05-17T21:35:40.159Z,5.83
2023-05-17T21:39:43.810Z,4.57
2023-05-17T21:43:48.569Z,4.30
2023-05-17T21:47:51.674Z,4.53
2023-05-17T21:51:56.138Z,3.53
2023-05-17T21:56:02.913Z,7.93
2023-05-17T22:00:12.612Z,4.17
2023-05-17T22:04:21.358Z,4.40
2023-05-17T22:08:27.329Z,4.53
2023-05-17T22:12:31.485Z,3.80
2023-05-17T22:16:35.136Z,6.73
2023-05-17T22:20:43.884Z,3.43
2023-05-17T22:24:50.312Z,5.27
2023-05-17T22:29:01.229Z,5.33
2023-05-17T22:33:05.213Z,4.70
2023-05-17T22:37:10.368Z,4.80
2023-05-17T22:41:14.648Z,5.90
2023-05-17T22:45:19.016Z,6.20
2023-05-17T22:49:22.007Z,5.00
2023-05-17T22:53:25.364Z,4.00
2023-05-17T22:57:29.788Z,5.80
2023-05-17T23:01:32.636Z,7.07
2023-05-17T23:05:36.887Z,6.90
2023-05-17T23:09:40.730Z,4.00
2023-05-17T23:13:45.409Z,5.67
2023-05-17T23:17:49.068Z,6.47
2023-05-17T23:21:56.087Z,6.73
2023-05-17T23:25:59.288Z,4.87
2023-05-17T23:30:04.720Z,7.73
2023-05-17T23:34:07.686Z,5.43
2023-05-17T23:38:10.596Z,5.70
2023-05-17T23:42:13.532Z,5.23
2023-05-17T23:46:19.987Z,5.53
2023-05-17T23:50:22.941Z,5.53
2023-05-17T23:54:25.810Z,7.10
2023-05-17T23:58:28.580Z,6.33
